Mundo Maya International Airport

Airport
ICAO code: 
MGMM
IATA Code: 
FRS
Summary
ICAO Region: 
CARSAM
Territory: 
Location: 
Santa Elena, Peten Department
Serving: 
Flores
Elevation: 
387 ft
Coordinates: 
Aerial View: 
16° 54' 52.776" N, 89° 52' 37.986" W
Metar
Observation
MGMM 212300Z 04004KT 9999 BKN024 28/24 Q1015 A2997 FEW090
Station
Melchor de Mencos Airport
Date/Time
2022-01-21 23:00:00
Wind direction
40°
Wind speed
04 kts
Lowest cloud amount
broken clouds
Temperature
28°C
Dew point
24°C
Humidity
78%
QNH
1015 hPa
Weather condition
n/a

Mundo Maya International Airport (Spanish: Aeropuerto Internacional Mundo Maya), formerly Flores International Airport, is an international airport located in the suburb of Santa Elena, in the city of Flores, Guatemala.

Climatology

Tropical rainforest climate (Köppen climate classification Af)

Airport map: 
Aerial View: 

SKYbrary Partners:

Safety knowledge contributed by: